sensor_id;sensor_type;location;lat;lon;timestamp;P1;durP1;ratioP1;P2;durP2;ratioP2
84082;SDS011;74174;52.224;6.878;2024-01-06T00:02:07;13.55;;;4.93;;
84082;SDS011;74174;52.224;6.878;2024-01-06T00:04:32;14.18;;;5.10;;
84082;SDS011;74174;52.224;6.878;2024-01-06T00:06:58;13.93;;;5.65;;
84082;SDS011;74174;52.224;6.878;2024-01-06T00:09:23;17.40;;;5.20;;
84082;SDS011;74174;52.224;6.878;2024-01-06T00:11:49;11.02;;;4.75;;
84082;SDS011;74174;52.224;6.878;2024-01-06T00:14:14;11.57;;;4.70;;
84082;SDS011;74174;52.224;6.878;2024-01-06T00:16:39;12.45;;;4.75;;
84082;SDS011;74174;52.224;6.878;2024-01-06T00:19:05;13.50;;;5.43;;
84082;SDS011;74174;52.224;6.878;2024-01-06T00:21:30;13.32;;;5.15;;
84082;SDS011;74174;52.224;6.878;2024-01-06T00:24:02;12.50;;;5.05;;
84082;SDS011;74174;52.224;6.878;2024-01-06T00:26:27;14.00;;;5.57;;
84082;SDS011;74174;52.224;6.878;2024-01-06T00:28:53;12.82;;;4.90;;
84082;SDS011;74174;52.224;6.878;2024-01-06T00:31:19;13.63;;;5.13;;
84082;SDS011;74174;52.224;6.878;2024-01-06T00:33:46;11.60;;;4.53;;
84082;SDS011;74174;52.224;6.878;2024-01-06T00:36:11;14.63;;;5.63;;
84082;SDS011;74174;52.224;6.878;2024-01-06T00:38:37;14.10;;;5.25;;
84082;SDS011;74174;52.224;6.878;2024-01-06T00:41:02;11.93;;;4.45;;
84082;SDS011;74174;52.224;6.878;2024-01-06T00:43:28;13.73;;;5.32;;
84082;SDS011;74174;52.224;6.878;2024-01-06T00:45:53;15.82;;;5.65;;
84082;SDS011;74174;52.224;6.878;2024-01-06T00:48:18;14.60;;;4.93;;
84082;SDS011;74174;52.224;6.878;2024-01-06T00:50:44;15.90;;;4.95;;
84082;SDS011;74174;52.224;6.878;2024-01-06T00:53:11;13.98;;;4.88;;
84082;SDS011;74174;52.224;6.878;2024-01-06T00:55:37;15.80;;;5.55;;
84082;SDS011;74174;52.224;6.878;2024-01-06T00:58:03;12.43;;;5.65;;
84082;SDS011;74174;52.224;6.878;2024-01-06T01:00:29;14.82;;;4.53;;
84082;SDS011;74174;52.224;6.878;2024-01-06T01:02:55;13.68;;;4.93;;
84082;SDS011;74174;52.224;6.878;2024-01-06T01:05:22;13.70;;;5.53;;
84082;SDS011;74174;52.224;6.878;2024-01-06T01:07:47;11.05;;;3.85;;
84082;SDS011;74174;52.224;6.878;2024-01-06T01:10:12;15.77;;;6.03;;
84082;SDS011;74174;52.224;6.878;2024-01-06T01:12:38;15.07;;;5.05;;
84082;SDS011;74174;52.224;6.878;2024-01-06T01:15:04;14.23;;;4.90;;
84082;SDS011;74174;52.224;6.878;2024-01-06T01:17:30;14.00;;;5.10;;
84082;SDS011;74174;52.224;6.878;2024-01-06T01:19:57;12.38;;;4.70;;
84082;SDS011;74174;52.224;6.878;2024-01-06T01:22:22;12.77;;;5.03;;
84082;SDS011;74174;52.224;6.878;2024-01-06T01:24:49;11.10;;;4.50;;
84082;SDS011;74174;52.224;6.878;2024-01-06T01:27:14;12.18;;;4.50;;
84082;SDS011;74174;52.224;6.878;2024-01-06T01:29:40;12.60;;;4.47;;
84082;SDS011;74174;52.224;6.878;2024-01-06T01:32:05;15.48;;;5.20;;
84082;SDS011;74174;52.224;6.878;2024-01-06T01:34:31;17.23;;;6.03;;
84082;SDS011;74174;52.224;6.878;2024-01-06T01:36:56;13.77;;;4.93;;
84082;SDS011;74174;52.224;6.878;2024-01-06T01:39:21;12.32;;;4.53;;
84082;SDS011;74174;52.224;6.878;2024-01-06T01:41:47;12.23;;;4.43;;
84082;SDS011;74174;52.224;6.878;2024-01-06T01:44:12;15.77;;;5.68;;
84082;SDS011;74174;52.224;6.878;2024-01-06T01:46:37;12.23;;;5.00;;
84082;SDS011;74174;52.224;6.878;2024-01-06T01:49:04;10.70;;;3.72;;
84082;SDS011;74174;52.224;6.878;2024-01-06T01:51:31;11.50;;;4.82;;
84082;SDS011;74174;52.224;6.878;2024-01-06T01:54:01;11.13;;;3.67;;
84082;SDS011;74174;52.224;6.878;2024-01-06T01:56:28;13.68;;;5.13;;
84082;SDS011;74174;52.224;6.878;2024-01-06T01:58:59;14.38;;;4.95;;
84082;SDS011;74174;52.224;6.878;2024-01-06T02:01:26;17.45;;;6.63;;
84082;SDS011;74174;52.224;6.878;2024-01-06T02:03:51;15.80;;;5.90;;
84082;SDS011;74174;52.224;6.878;2024-01-06T02:06:19;17.85;;;5.72;;
84082;SDS011;74174;52.224;6.878;2024-01-06T02:08:45;18.23;;;6.63;;
84082;SDS011;74174;52.224;6.878;2024-01-06T02:11:10;19.17;;;6.53;;
84082;SDS011;74174;52.224;6.878;2024-01-06T02:13:36;17.17;;;7.47;;
84082;SDS011;74174;52.224;6.878;2024-01-06T02:16:02;24.05;;;7.15;;
84082;SDS011;74174;52.224;6.878;2024-01-06T02:18:31;18.42;;;6.50;;
84082;SDS011;74174;52.224;6.878;2024-01-06T02:20:58;20.23;;;6.90;;
84082;SDS011;74174;52.224;6.878;2024-01-06T02:23:25;19.55;;;6.90;;
84082;SDS011;74174;52.224;6.878;2024-01-06T02:25:50;19.70;;;7.30;;
84082;SDS011;74174;52.224;6.878;2024-01-06T02:28:16;22.48;;;7.53;;
84082;SDS011;74174;52.224;6.878;2024-01-06T02:30:41;19.52;;;7.55;;
84082;SDS011;74174;52.224;6.878;2024-01-06T02:33:06;17.75;;;7.40;;
84082;SDS011;74174;52.224;6.878;2024-01-06T02:35:32;17.75;;;7.40;;
84082;SDS011;74174;52.224;6.878;2024-01-06T02:37:57;15.25;;;6.68;;
84082;SDS011;74174;52.224;6.878;2024-01-06T02:40:22;15.95;;;5.88;;
84082;SDS011;74174;52.224;6.878;2024-01-06T02:42:48;19.27;;;6.65;;
84082;SDS011;74174;52.224;6.878;2024-01-06T02:45:13;16.08;;;6.22;;
84082;SDS011;74174;52.224;6.878;2024-01-06T02:47:40;14.73;;;5.45;;
84082;SDS011;74174;52.224;6.878;2024-01-06T02:50:06;17.70;;;5.65;;
84082;SDS011;74174;52.224;6.878;2024-01-06T02:52:31;13.75;;;5.10;;
84082;SDS011;74174;52.224;6.878;2024-01-06T02:54:57;15.48;;;4.97;;
84082;SDS011;74174;52.224;6.878;2024-01-06T02:57:22;16.13;;;5.05;;
84082;SDS011;74174;52.224;6.878;2024-01-06T02:59:48;13.05;;;4.60;;
84082;SDS011;74174;52.224;6.878;2024-01-06T03:02:13;16.05;;;4.88;;
84082;SDS011;74174;52.224;6.878;2024-01-06T03:04:39;11.57;;;4.85;;
84082;SDS011;74174;52.224;6.878;2024-01-06T03:07:04;16.65;;;5.45;;
84082;SDS011;74174;52.224;6.878;2024-01-06T03:09:30;17.52;;;4.90;;
84082;SDS011;74174;52.224;6.878;2024-01-06T03:11:55;15.30;;;5.63;;
84082;SDS011;74174;52.224;6.878;2024-01-06T03:14:21;14.63;;;4.95;;
84082;SDS011;74174;52.224;6.878;2024-01-06T03:16:46;11.90;;;4.63;;
84082;SDS011;74174;52.224;6.878;2024-01-06T03:19:11;13.57;;;5.60;;
84082;SDS011;74174;52.224;6.878;2024-01-06T03:21:37;13.18;;;5.30;;
84082;SDS011;74174;52.224;6.878;2024-01-06T03:24:03;13.82;;;6.05;;
84082;SDS011;74174;52.224;6.878;2024-01-06T03:26:29;12.98;;;4.65;;
84082;SDS011;74174;52.224;6.878;2024-01-06T03:28:55;12.35;;;5.13;;
84082;SDS011;74174;52.224;6.878;2024-01-06T03:31:21;13.57;;;5.82;;
84082;SDS011;74174;52.224;6.878;2024-01-06T03:33:47;16.88;;;6.07;;
84082;SDS011;74174;52.224;6.878;2024-01-06T03:36:13;15.35;;;6.65;;
84082;SDS011;74174;52.224;6.878;2024-01-06T03:38:40;13.80;;;5.90;;
84082;SDS011;74174;52.224;6.878;2024-01-06T03:41:06;16.25;;;6.68;;
84082;SDS011;74174;52.224;6.878;2024-01-06T03:43:31;17.83;;;7.43;;
84082;SDS011;74174;52.224;6.878;2024-01-06T03:45:57;16.13;;;6.57;;
84082;SDS011;74174;52.224;6.878;2024-01-06T03:48:23;17.95;;;7.43;;
84082;SDS011;74174;52.224;6.878;2024-01-06T03:50:48;18.92;;;7.30;;
84082;SDS011;74174;52.224;6.878;2024-01-06T03:53:14;20.88;;;8.60;;
84082;SDS011;74174;52.224;6.878;2024-01-06T03:55:39;19.95;;;7.40;;
84082;SDS011;74174;52.224;6.878;2024-01-06T03:58:05;17.40;;;7.05;;
84082;SDS011;74174;52.224;6.878;2024-01-06T04:00:31;17.38;;;6.65;;
84082;SDS011;74174;52.224;6.878;2024-01-06T04:02:56;18.77;;;9.05;;
84082;SDS011;74174;52.224;6.878;2024-01-06T04:05:21;17.40;;;7.13;;
84082;SDS011;74174;52.224;6.878;2024-01-06T04:07:47;20.75;;;8.27;;
84082;SDS011;74174;52.224;6.878;2024-01-06T04:10:12;19.83;;;8.65;;
84082;SDS011;74174;52.224;6.878;2024-01-06T04:12:38;17.40;;;7.07;;
84082;SDS011;74174;52.224;6.878;2024-01-06T04:15:03;17.38;;;7.57;;
84082;SDS011;74174;52.224;6.878;2024-01-06T04:17:30;16.33;;;7.05;;
84082;SDS011;74174;52.224;6.878;2024-01-06T04:19:56;17.92;;;8.50;;
84082;SDS011;74174;52.224;6.878;2024-01-06T04:22:21;15.80;;;6.57;;
84082;SDS011;74174;52.224;6.878;2024-01-06T04:24:47;20.02;;;7.85;;
84082;SDS011;74174;52.224;6.878;2024-01-06T04:27:12;22.23;;;8.00;;
84082;SDS011;74174;52.224;6.878;2024-01-06T04:29:38;19.20;;;8.05;;
84082;SDS011;74174;52.224;6.878;2024-01-06T04:32:04;20.65;;;8.07;;
84082;SDS011;74174;52.224;6.878;2024-01-06T04:34:31;19.10;;;8.15;;
84082;SDS011;74174;52.224;6.878;2024-01-06T04:36:56;20.23;;;7.93;;
84082;SDS011;74174;52.224;6.878;2024-01-06T04:39:21;17.98;;;6.72;;
84082;SDS011;74174;52.224;6.878;2024-01-06T04:41:47;18.98;;;7.50;;
84082;SDS011;74174;52.224;6.878;2024-01-06T04:44:12;20.92;;;8.18;;
84082;SDS011;74174;52.224;6.878;2024-01-06T04:46:38;17.95;;;7.28;;
84082;SDS011;74174;52.224;6.878;2024-01-06T04:49:03;20.17;;;7.18;;
84082;SDS011;74174;52.224;6.878;2024-01-06T04:51:29;19.60;;;6.68;;
84082;SDS011;74174;52.224;6.878;2024-01-06T04:53:55;23.85;;;8.55;;
84082;SDS011;74174;52.224;6.878;2024-01-06T04:56:23;21.33;;;7.68;;
84082;SDS011;74174;52.224;6.878;2024-01-06T04:58:48;16.63;;;6.68;;
84082;SDS011;74174;52.224;6.878;2024-01-06T05:01:14;23.45;;;8.25;;
84082;SDS011;74174;52.224;6.878;2024-01-06T05:03:39;19.52;;;8.00;;
84082;SDS011;74174;52.224;6.878;2024-01-06T05:06:05;20.95;;;8.02;;
84082;SDS011;74174;52.224;6.878;2024-01-06T05:08:30;18.02;;;6.72;;
84082;SDS011;74174;52.224;6.878;2024-01-06T05:10:56;19.90;;;7.38;;
84082;SDS011;74174;52.224;6.878;2024-01-06T05:13:23;19.73;;;7.32;;
84082;SDS011;74174;52.224;6.878;2024-01-06T05:15:48;19.27;;;7.32;;
84082;SDS011;74174;52.224;6.878;2024-01-06T05:18:13;20.52;;;8.85;;
84082;SDS011;74174;52.224;6.878;2024-01-06T05:20:39;20.75;;;7.82;;
84082;SDS011;74174;52.224;6.878;2024-01-06T05:23:06;21.20;;;7.60;;
84082;SDS011;74174;52.224;6.878;2024-01-06T05:25:32;18.27;;;7.25;;
84082;SDS011;74174;52.224;6.878;2024-01-06T05:27:57;19.40;;;8.18;;
84082;SDS011;74174;52.224;6.878;2024-01-06T05:30:22;22.13;;;8.65;;
84082;SDS011;74174;52.224;6.878;2024-01-06T05:32:48;22.35;;;8.20;;
84082;SDS011;74174;52.224;6.878;2024-01-06T05:35:18;20.73;;;8.35;;
84082;SDS011;74174;52.224;6.878;2024-01-06T05:37:44;21.38;;;7.85;;
84082;SDS011;74174;52.224;6.878;2024-01-06T05:40:09;21.42;;;7.78;;
84082;SDS011;74174;52.224;6.878;2024-01-06T05:42:36;23.38;;;8.63;;
84082;SDS011;74174;52.224;6.878;2024-01-06T05:45:01;20.88;;;7.43;;
84082;SDS011;74174;52.224;6.878;2024-01-06T05:47:27;23.75;;;9.68;;
84082;SDS011;74174;52.224;6.878;2024-01-06T05:49:53;24.77;;;9.88;;
84082;SDS011;74174;52.224;6.878;2024-01-06T05:52:18;23.80;;;8.88;;
84082;SDS011;74174;52.224;6.878;2024-01-06T05:54:43;29.13;;;9.80;;
84082;SDS011;74174;52.224;6.878;2024-01-06T05:57:09;24.55;;;8.32;;
84082;SDS011;74174;52.224;6.878;2024-01-06T05:59:35;24.50;;;9.40;;
84082;SDS011;74174;52.224;6.878;2024-01-06T06:02:00;30.38;;;10.57;;
84082;SDS011;74174;52.224;6.878;2024-01-06T06:04:26;26.38;;;10.02;;
84082;SDS011;74174;52.224;6.878;2024-01-06T06:06:52;24.20;;;8.70;;
84082;SDS011;74174;52.224;6.878;2024-01-06T06:09:17;25.10;;;9.15;;
84082;SDS011;74174;52.224;6.878;2024-01-06T06:11:42;30.27;;;9.00;;
84082;SDS011;74174;52.224;6.878;2024-01-06T06:14:08;27.52;;;9.80;;
84082;SDS011;74174;52.224;6.878;2024-01-06T06:16:34;25.05;;;9.65;;
84082;SDS011;74174;52.224;6.878;2024-01-06T06:18:59;26.98;;;11.10;;
84082;SDS011;74174;52.224;6.878;2024-01-06T06:21:25;27.40;;;10.38;;
84082;SDS011;74174;52.224;6.878;2024-01-06T06:23:50;25.85;;;9.18;;
84082;SDS011;74174;52.224;6.878;2024-01-06T06:26:16;23.20;;;8.82;;
84082;SDS011;74174;52.224;6.878;2024-01-06T06:28:41;26.70;;;9.10;;
84082;SDS011;74174;52.224;6.878;2024-01-06T06:31:07;24.58;;;9.43;;
84082;SDS011;74174;52.224;6.878;2024-01-06T06:33:32;26.92;;;9.70;;
84082;SDS011;74174;52.224;6.878;2024-01-06T06:36:00;29.45;;;8.43;;
84082;SDS011;74174;52.224;6.878;2024-01-06T06:38:26;31.52;;;11.18;;
84082;SDS011;74174;52.224;6.878;2024-01-06T06:40:52;27.40;;;11.13;;
84082;SDS011;74174;52.224;6.878;2024-01-06T06:43:18;28.55;;;10.32;;
84082;SDS011;74174;52.224;6.878;2024-01-06T06:45:45;27.17;;;8.68;;
84082;SDS011;74174;52.224;6.878;2024-01-06T06:48:10;28.10;;;8.82;;
84082;SDS011;74174;52.224;6.878;2024-01-06T06:50:36;23.20;;;8.38;;
84082;SDS011;74174;52.224;6.878;2024-01-06T06:53:01;28.02;;;8.68;;
84082;SDS011;74174;52.224;6.878;2024-01-06T06:55:27;26.35;;;9.98;;
84082;SDS011;74174;52.224;6.878;2024-01-06T06:57:52;25.40;;;8.32;;
84082;SDS011;74174;52.224;6.878;2024-01-06T07:00:18;25.95;;;8.88;;
84082;SDS011;74174;52.224;6.878;2024-01-06T07:02:44;28.75;;;9.38;;
84082;SDS011;74174;52.224;6.878;2024-01-06T07:05:09;24.95;;;8.20;;
84082;SDS011;74174;52.224;6.878;2024-01-06T07:07:35;26.25;;;9.25;;
84082;SDS011;74174;52.224;6.878;2024-01-06T07:10:01;24.70;;;9.25;;
84082;SDS011;74174;52.224;6.878;2024-01-06T07:12:28;27.58;;;10.25;;
84082;SDS011;74174;52.224;6.878;2024-01-06T07:14:53;24.08;;;8.65;;
84082;SDS011;74174;52.224;6.878;2024-01-06T07:17:19;29.00;;;10.13;;
84082;SDS011;74174;52.224;6.878;2024-01-06T07:19:45;25.05;;;9.05;;
84082;SDS011;74174;52.224;6.878;2024-01-06T07:22:11;28.27;;;10.68;;
84082;SDS011;74174;52.224;6.878;2024-01-06T07:24:37;25.95;;;9.18;;
84082;SDS011;74174;52.224;6.878;2024-01-06T07:27:02;22.27;;;8.95;;
84082;SDS011;74174;52.224;6.878;2024-01-06T07:29:29;22.55;;;9.65;;
84082;SDS011;74174;52.224;6.878;2024-01-06T07:31:54;21.38;;;8.38;;
84082;SDS011;74174;52.224;6.878;2024-01-06T07:34:20;23.05;;;8.13;;
84082;SDS011;74174;52.224;6.878;2024-01-06T07:36:45;25.55;;;8.82;;
84082;SDS011;74174;52.224;6.878;2024-01-06T07:39:11;23.50;;;8.18;;
84082;SDS011;74174;52.224;6.878;2024-01-06T07:41:36;26.17;;;8.77;;
84082;SDS011;74174;52.224;6.878;2024-01-06T07:44:01;22.92;;;8.38;;
84082;SDS011;74174;52.224;6.878;2024-01-06T07:46:29;24.02;;;9.77;;
84082;SDS011;74174;52.224;6.878;2024-01-06T07:48:57;25.17;;;8.60;;
84082;SDS011;74174;52.224;6.878;2024-01-06T07:51:22;24.45;;;9.38;;
84082;SDS011;74174;52.224;6.878;2024-01-06T07:53:47;23.50;;;8.65;;
84082;SDS011;74174;52.224;6.878;2024-01-06T07:56:14;27.38;;;9.82;;
84082;SDS011;74174;52.224;6.878;2024-01-06T07:58:40;26.05;;;10.32;;
84082;SDS011;74174;52.224;6.878;2024-01-06T08:01:05;26.45;;;9.48;;
84082;SDS011;74174;52.224;6.878;2024-01-06T08:03:30;21.58;;;8.63;;
84082;SDS011;74174;52.224;6.878;2024-01-06T08:05:56;25.92;;;9.82;;
84082;SDS011;74174;52.224;6.878;2024-01-06T08:08:21;23.30;;;7.85;;
84082;SDS011;74174;52.224;6.878;2024-01-06T08:10:48;26.38;;;8.85;;
84082;SDS011;74174;52.224;6.878;2024-01-06T08:13:13;26.40;;;10.00;;
84082;SDS011;74174;52.224;6.878;2024-01-06T08:15:40;24.55;;;9.82;;
84082;SDS011;74174;52.224;6.878;2024-01-06T08:18:05;24.73;;;8.13;;
84082;SDS011;74174;52.224;6.878;2024-01-06T08:20:32;23.35;;;9.32;;
84082;SDS011;74174;52.224;6.878;2024-01-06T08:22:58;25.60;;;8.95;;
84082;SDS011;74174;52.224;6.878;2024-01-06T08:25:23;25.65;;;9.73;;
84082;SDS011;74174;52.224;6.878;2024-01-06T08:27:50;25.80;;;9.38;;
84082;SDS011;74174;52.224;6.878;2024-01-06T08:30:15;27.20;;;9.73;;
84082;SDS011;74174;52.224;6.878;2024-01-06T08:32:41;25.23;;;9.95;;
84082;SDS011;74174;52.224;6.878;2024-01-06T08:35:12;26.88;;;9.82;;
84082;SDS011;74174;52.224;6.878;2024-01-06T08:37:42;28.15;;;10.10;;
84082;SDS011;74174;52.224;6.878;2024-01-06T08:40:08;26.05;;;10.32;;
84082;SDS011;74174;52.224;6.878;2024-01-06T08:42:34;24.02;;;8.40;;
84082;SDS011;74174;52.224;6.878;2024-01-06T08:44:59;23.70;;;9.30;;
84082;SDS011;74174;52.224;6.878;2024-01-06T08:47:27;21.83;;;8.70;;
84082;SDS011;74174;52.224;6.878;2024-01-06T08:49:52;24.90;;;9.38;;
84082;SDS011;74174;52.224;6.878;2024-01-06T08:52:17;28.48;;;10.02;;
84082;SDS011;74174;52.224;6.878;2024-01-06T08:54:44;24.52;;;9.60;;
84082;SDS011;74174;52.224;6.878;2024-01-06T08:57:09;25.98;;;8.43;;
84082;SDS011;74174;52.224;6.878;2024-01-06T08:59:36;25.67;;;9.90;;
84082;SDS011;74174;52.224;6.878;2024-01-06T09:02:02;24.65;;;9.13;;
84082;SDS011;74174;52.224;6.878;2024-01-06T09:04:28;27.00;;;11.27;;
84082;SDS011;74174;52.224;6.878;2024-01-06T09:06:54;25.33;;;8.73;;
84082;SDS011;74174;52.224;6.878;2024-01-06T09:09:19;25.63;;;9.32;;
84082;SDS011;74174;52.224;6.878;2024-01-06T09:11:48;25.80;;;9.45;;
84082;SDS011;74174;52.224;6.878;2024-01-06T09:14:14;26.85;;;10.18;;
84082;SDS011;74174;52.224;6.878;2024-01-06T09:16:39;28.45;;;10.15;;
84082;SDS011;74174;52.224;6.878;2024-01-06T09:19:29;27.63;;;10.68;;
84082;SDS011;74174;52.224;6.878;2024-01-06T09:21:55;26.88;;;9.35;;
84082;SDS011;74174;52.224;6.878;2024-01-06T09:24:21;22.52;;;9.40;;
84082;SDS011;74174;52.224;6.878;2024-01-06T09:26:47;25.58;;;9.02;;
84082;SDS011;74174;52.224;6.878;2024-01-06T09:29:14;25.95;;;8.20;;
84082;SDS011;74174;52.224;6.878;2024-01-06T09:31:42;21.95;;;9.45;;
84082;SDS011;74174;52.224;6.878;2024-01-06T09:34:11;22.48;;;9.65;;
84082;SDS011;74174;52.224;6.878;2024-01-06T09:36:37;24.23;;;8.27;;
84082;SDS011;74174;52.224;6.878;2024-01-06T09:39:02;23.27;;;9.57;;
84082;SDS011;74174;52.224;6.878;2024-01-06T09:41:30;20.30;;;7.28;;
84082;SDS011;74174;52.224;6.878;2024-01-06T09:43:56;18.80;;;7.82;;
84082;SDS011;74174;52.224;6.878;2024-01-06T09:46:25;18.60;;;8.05;;
84082;SDS011;74174;52.224;6.878;2024-01-06T09:48:53;16.42;;;7.05;;
84082;SDS011;74174;52.224;6.878;2024-01-06T09:51:20;16.65;;;6.75;;
84082;SDS011;74174;52.224;6.878;2024-01-06T09:53:49;16.77;;;7.47;;
84082;SDS011;74174;52.224;6.878;2024-01-06T09:56:25;16.38;;;6.55;;
84082;SDS011;74174;52.224;6.878;2024-01-06T09:58:54;18.55;;;7.28;;
84082;SDS011;74174;52.224;6.878;2024-01-06T10:01:20;14.32;;;5.72;;
84082;SDS011;74174;52.224;6.878;2024-01-06T10:03:46;14.05;;;6.05;;
84082;SDS011;74174;52.224;6.878;2024-01-06T10:06:15;15.82;;;6.90;;
84082;SDS011;74174;52.224;6.878;2024-01-06T10:08:46;15.20;;;6.13;;
84082;SDS011;74174;52.224;6.878;2024-01-06T10:11:14;14.55;;;5.85;;
84082;SDS011;74174;52.224;6.878;2024-01-06T10:13:40;15.50;;;6.30;;
84082;SDS011;74174;52.224;6.878;2024-01-06T10:16:05;15.20;;;5.80;;
84082;SDS011;74174;52.224;6.878;2024-01-06T10:18:32;16.20;;;6.65;;
84082;SDS011;74174;52.224;6.878;2024-01-06T10:20:58;12.18;;;5.65;;
84082;SDS011;74174;52.224;6.878;2024-01-06T10:23:25;15.43;;;6.70;;
84082;SDS011;74174;52.224;6.878;2024-01-06T10:25:52;14.07;;;5.85;;
84082;SDS011;74174;52.224;6.878;2024-01-06T10:28:20;13.80;;;5.65;;
84082;SDS011;74174;52.224;6.878;2024-01-06T10:30:50;14.98;;;6.15;;
84082;SDS011;74174;52.224;6.878;2024-01-06T10:33:17;16.08;;;6.15;;
84082;SDS011;74174;52.224;6.878;2024-01-06T10:35:48;15.02;;;6.22;;
84082;SDS011;74174;52.224;6.878;2024-01-06T10:38:15;15.88;;;5.93;;
84082;SDS011;74174;52.224;6.878;2024-01-06T10:40:59;15.10;;;6.57;;
84082;SDS011;74174;52.224;6.878;2024-01-06T10:43:31;14.40;;;7.03;;
84082;SDS011;74174;52.224;6.878;2024-01-06T10:46:02;16.42;;;6.78;;
84082;SDS011;74174;52.224;6.878;2024-01-06T10:48:30;16.58;;;6.93;;
84082;SDS011;74174;52.224;6.878;2024-01-06T10:50:58;16.85;;;8.85;;
84082;SDS011;74174;52.224;6.878;2024-01-06T10:53:24;16.30;;;6.88;;
84082;SDS011;74174;52.224;6.878;2024-01-06T10:55:52;17.20;;;6.47;;
84082;SDS011;74174;52.224;6.878;2024-01-06T10:58:17;15.38;;;7.38;;
84082;SDS011;74174;52.224;6.878;2024-01-06T11:00:43;13.18;;;6.32;;
84082;SDS011;74174;52.224;6.878;2024-01-06T11:03:09;16.40;;;7.30;;
84082;SDS011;74174;52.224;6.878;2024-01-06T11:05:36;17.20;;;7.63;;
84082;SDS011;74174;52.224;6.878;2024-01-06T11:08:03;18.15;;;7.32;;
84082;SDS011;74174;52.224;6.878;2024-01-06T11:10:29;15.98;;;6.75;;
84082;SDS011;74174;52.224;6.878;2024-01-06T11:13:08;16.98;;;7.20;;
84082;SDS011;74174;52.224;6.878;2024-01-06T11:15:48;16.83;;;7.80;;
84082;SDS011;74174;52.224;6.878;2024-01-06T11:23:48;15.05;;;7.38;;
84082;SDS011;74174;52.224;6.878;2024-01-06T11:26:52;15.82;;;6.93;;
84082;SDS011;74174;52.224;6.878;2024-01-06T11:29:20;15.75;;;6.75;;
84082;SDS011;74174;52.224;6.878;2024-01-06T11:34:47;16.55;;;6.55;;
84082;SDS011;74174;52.224;6.878;2024-01-06T11:37:18;15.35;;;6.28;;
84082;SDS011;74174;52.224;6.878;2024-01-06T11:39:45;16.13;;;7.65;;
84082;SDS011;74174;52.224;6.878;2024-01-06T11:42:10;15.73;;;7.00;;
84082;SDS011;74174;52.224;6.878;2024-01-06T11:44:37;15.15;;;6.65;;
84082;SDS011;74174;52.224;6.878;2024-01-06T11:47:03;12.88;;;7.05;;
84082;SDS011;74174;52.224;6.878;2024-01-06T11:49:30;14.25;;;6.65;;
84082;SDS011;74174;52.224;6.878;2024-01-06T11:51:56;11.73;;;5.30;;
84082;SDS011;74174;52.224;6.878;2024-01-06T11:54:22;15.07;;;6.47;;
84082;SDS011;74174;52.224;6.878;2024-01-06T11:56:48;13.50;;;5.88;;
84082;SDS011;74174;52.224;6.878;2024-01-06T11:59:14;14.77;;;7.00;;
84082;SDS011;74174;52.224;6.878;2024-01-06T12:01:40;13.07;;;5.68;;
84082;SDS011;74174;52.224;6.878;2024-01-06T12:04:07;15.60;;;6.95;;
84082;SDS011;74174;52.224;6.878;2024-01-06T12:06:33;14.63;;;6.50;;
84082;SDS011;74174;52.224;6.878;2024-01-06T12:09:06;14.10;;;6.45;;
84082;SDS011;74174;52.224;6.878;2024-01-06T12:11:32;12.88;;;6.22;;
84082;SDS011;74174;52.224;6.878;2024-01-06T12:13:58;15.27;;;7.05;;
84082;SDS011;74174;52.224;6.878;2024-01-06T12:16:23;14.88;;;6.78;;
84082;SDS011;74174;52.224;6.878;2024-01-06T12:18:52;12.60;;;6.53;;
84082;SDS011;74174;52.224;6.878;2024-01-06T12:21:21;14.55;;;7.72;;
84082;SDS011;74174;52.224;6.878;2024-01-06T12:23:49;15.45;;;7.40;;
84082;SDS011;74174;52.224;6.878;2024-01-06T12:26:18;14.82;;;6.18;;
84082;SDS011;74174;52.224;6.878;2024-01-06T12:28:46;16.08;;;8.77;;
84082;SDS011;74174;52.224;6.878;2024-01-06T12:31:14;14.95;;;6.90;;
84082;SDS011;74174;52.224;6.878;2024-01-06T12:33:40;14.65;;;6.97;;
84082;SDS011;74174;52.224;6.878;2024-01-06T12:36:08;12.77;;;6.47;;
84082;SDS011;74174;52.224;6.878;2024-01-06T12:38:36;13.25;;;6.60;;
84082;SDS011;74174;52.224;6.878;2024-01-06T12:41:03;13.63;;;6.78;;
84082;SDS011;74174;52.224;6.878;2024-01-06T12:43:29;15.57;;;7.28;;
84082;SDS011;74174;52.224;6.878;2024-01-06T12:45:54;14.70;;;6.80;;
84082;SDS011;74174;52.224;6.878;2024-01-06T12:48:22;11.20;;;6.10;;
84082;SDS011;74174;52.224;6.878;2024-01-06T12:50:47;14.50;;;7.00;;
84082;SDS011;74174;52.224;6.878;2024-01-06T12:53:13;14.00;;;6.80;;
84082;SDS011;74174;52.224;6.878;2024-01-06T12:55:40;13.90;;;6.82;;
84082;SDS011;74174;52.224;6.878;2024-01-06T12:58:05;14.43;;;6.65;;
84082;SDS011;74174;52.224;6.878;2024-01-06T13:00:33;15.93;;;7.00;;
84082;SDS011;74174;52.224;6.878;2024-01-06T13:02:58;14.18;;;6.65;;
84082;SDS011;74174;52.224;6.878;2024-01-06T13:05:24;16.40;;;7.82;;
84082;SDS011;74174;52.224;6.878;2024-01-06T13:07:49;15.55;;;7.20;;
84082;SDS011;74174;52.224;6.878;2024-01-06T13:10:15;14.00;;;6.90;;
84082;SDS011;74174;52.224;6.878;2024-01-06T13:12:40;15.05;;;6.70;;
84082;SDS011;74174;52.224;6.878;2024-01-06T13:15:06;16.50;;;7.90;;
84082;SDS011;74174;52.224;6.878;2024-01-06T13:17:37;18.13;;;8.45;;
84082;SDS011;74174;52.224;6.878;2024-01-06T13:20:04;19.15;;;8.45;;
84082;SDS011;74174;52.224;6.878;2024-01-06T13:22:30;20.95;;;8.27;;
84082;SDS011;74174;52.224;6.878;2024-01-06T13:24:55;16.33;;;8.05;;
84082;SDS011;74174;52.224;6.878;2024-01-06T13:27:21;20.52;;;8.50;;
84082;SDS011;74174;52.224;6.878;2024-01-06T13:29:46;19.17;;;8.18;;
84082;SDS011;74174;52.224;6.878;2024-01-06T13:32:12;20.83;;;8.50;;
84082;SDS011;74174;52.224;6.878;2024-01-06T13:34:38;21.85;;;8.55;;
84082;SDS011;74174;52.224;6.878;2024-01-06T13:37:04;22.27;;;9.32;;
84082;SDS011;74174;52.224;6.878;2024-01-06T13:39:32;21.88;;;9.68;;
84082;SDS011;74174;52.224;6.878;2024-01-06T13:41:57;21.73;;;9.35;;
84082;SDS011;74174;52.224;6.878;2024-01-06T13:44:22;21.23;;;9.95;;
84082;SDS011;74174;52.224;6.878;2024-01-06T13:46:51;21.20;;;9.57;;
84082;SDS011;74174;52.224;6.878;2024-01-06T13:49:16;22.85;;;9.30;;
84082;SDS011;74174;52.224;6.878;2024-01-06T13:51:42;23.48;;;9.93;;
84082;SDS011;74174;52.224;6.878;2024-01-06T13:54:08;22.35;;;10.00;;
84082;SDS011;74174;52.224;6.878;2024-01-06T13:56:34;23.02;;;9.60;;
84082;SDS011;74174;52.224;6.878;2024-01-06T13:59:02;21.63;;;9.43;;
84082;SDS011;74174;52.224;6.878;2024-01-06T14:01:27;19.80;;;8.95;;
84082;SDS011;74174;52.224;6.878;2024-01-06T14:03:53;20.73;;;9.52;;
84082;SDS011;74174;52.224;6.878;2024-01-06T14:06:25;23.38;;;10.45;;
84082;SDS011;74174;52.224;6.878;2024-01-06T14:08:55;22.77;;;10.02;;
84082;SDS011;74174;52.224;6.878;2024-01-06T14:11:21;23.25;;;10.50;;
84082;SDS011;74174;52.224;6.878;2024-01-06T14:13:46;22.20;;;9.85;;
84082;SDS011;74174;52.224;6.878;2024-01-06T14:16:14;21.25;;;10.18;;
84082;SDS011;74174;52.224;6.878;2024-01-06T14:18:42;23.02;;;10.40;;
84082;SDS011;74174;52.224;6.878;2024-01-06T14:21:11;23.15;;;9.27;;
84082;SDS011;74174;52.224;6.878;2024-01-06T14:23:40;25.55;;;9.88;;
84082;SDS011;74174;52.224;6.878;2024-01-06T14:26:08;21.88;;;9.57;;
84082;SDS011;74174;52.224;6.878;2024-01-06T14:28:34;21.35;;;10.43;;
84082;SDS011;74174;52.224;6.878;2024-01-06T14:30:59;21.80;;;9.07;;
84082;SDS011;74174;52.224;6.878;2024-01-06T14:33:25;23.90;;;10.60;;
84082;SDS011;74174;52.224;6.878;2024-01-06T14:35:52;19.05;;;9.77;;
84082;SDS011;74174;52.224;6.878;2024-01-06T14:38:18;23.80;;;10.60;;